Terminal Aerodrome Forecast
Issued by NWS Omaha/Valley, NE

Home | Current Version | Previous Version | Graphics & Text | Print | Product List | Glossary On
Versions: 1 2 3 4 5 6 7 8 9 10 11 12 13 14 15 16 17 18 19 20 21 22 23 24 25 26 27 28 29 30
000
FTUS43 KOAX 021120
TAFOFK
TAF
KOFK 021120Z 0212/0312 15014G23KT P6SM SCT040 BKN250
     FM030100 16013KT P6SM SCT050
     FM030800 16010KT P6SM BKN050 OVC100
      TEMPO 0308/0312 4SM -RA BKN025=

USA.gov is the U.S. government's official web portal to all federal, state and local government web resources and services.